createdAt,value
2018-05-31T00:03:49.438Z,245.68
2018-05-31T00:06:22.525Z,239.77
2018-05-31T00:11:25.552Z,278.05
2018-05-31T00:13:54.087Z,283.83
2018-05-31T00:16:23.173Z,286.20
2018-05-31T00:18:52.270Z,282.75
2018-05-31T00:21:20.600Z,290.75
2018-05-31T00:26:42.476Z,302.80
2018-05-31T00:29:11.579Z,317.15
2018-05-31T00:31:40.107Z,315.23
2018-05-31T00:34:20.482Z,315.12
2018-05-31T00:39:23.662Z,325.70
2018-05-31T00:44:28.201Z,322.63
2018-05-31T00:46:56.538Z,314.75
2018-05-31T00:49:25.086Z,292.17
2018-05-31T00:52:04.714Z,285.58
2018-05-31T00:54:33.251Z,296.73
2018-05-31T00:57:02.341Z,312.55
2018-05-31T00:59:33.890Z,299.37
2018-05-31T01:02:02.417Z,311.37
2018-05-31T01:07:23.403Z,358.93
2018-05-31T01:09:52.517Z,359.33
2018-05-31T01:12:21.029Z,378.93
2018-05-31T01:17:24.592Z,398.47
2018-05-31T01:19:53.156Z,384.23
2018-05-31T01:22:27.842Z,379.47
2018-05-31T01:24:56.371Z,371.00
2018-05-31T01:30:11.484Z,349.83
2018-05-31T01:32:40.003Z,351.20
2018-05-31T01:37:42.220Z,379.90
2018-05-31T01:40:11.308Z,374.40
2018-05-31T01:45:22.590Z,367.50
2018-05-31T01:50:25.140Z,386.17
2018-05-31T01:55:27.455Z,410.93
2018-05-31T01:57:55.801Z,436.60
2018-05-31T02:00:24.312Z,452.07
2018-05-31T02:05:26.280Z,457.40
2018-05-31T02:07:54.825Z,433.10
2018-05-31T02:10:41.282Z,451.23
2018-05-31T02:13:10.380Z,456.93
2018-05-31T02:15:38.721Z,456.60
2018-05-31T02:18:07.250Z,432.70
2018-05-31T02:20:38.919Z,436.70
2018-05-31T02:25:47.967Z,426.93
2018-05-31T02:28:16.289Z,414.50
2018-05-31T02:30:44.891Z,430.97
2018-05-31T02:33:13.238Z,406.53
2018-05-31T02:35:41.766Z,424.03
2018-05-31T02:38:11.046Z,425.83
2018-05-31T02:40:39.751Z,416.93
2018-05-31T02:43:08.082Z,444.10
2018-05-31T02:45:37.194Z,440.00
2018-05-31T02:48:06.158Z,491.63
2018-05-31T02:50:34.931Z,473.20
2018-05-31T02:53:03.459Z,487.73
2018-05-31T02:55:32.367Z,464.17
2018-05-31T02:58:01.667Z,483.97
2018-05-31T03:00:30.972Z,479.53
2018-05-31T03:03:00.274Z,516.87
2018-05-31T03:05:28.809Z,491.63
2018-05-31T03:07:57.357Z,568.93
2018-05-31T03:10:26.650Z,533.30
2018-05-31T03:12:55.203Z,529.03
2018-05-31T03:15:23.534Z,503.63
2018-05-31T03:17:51.878Z,531.63
2018-05-31T03:20:20.389Z,564.40
2018-05-31T03:22:48.911Z,544.93
2018-05-31T03:25:17.426Z,643.43
2018-05-31T03:27:45.973Z,586.53
2018-05-31T03:30:14.516Z,584.23
2018-05-31T03:32:43.033Z,578.87
2018-05-31T03:35:11.545Z,572.73
2018-05-31T03:37:40.072Z,601.55
2018-05-31T03:40:08.575Z,623.80
2018-05-31T03:42:37.657Z,616.90
2018-05-31T03:45:06.789Z,590.55
2018-05-31T03:47:35.332Z,598.08
2018-05-31T03:50:04.207Z,569.78
2018-05-31T03:52:34.094Z,542.00
2018-05-31T03:55:03.233Z,563.95
2018-05-31T03:57:31.564Z,531.80
2018-05-31T04:00:00.648Z,535.35
2018-05-31T04:02:30.366Z,523.03
2018-05-31T04:04:59.293Z,539.53
2018-05-31T04:07:28.254Z,550.45
2018-05-31T04:09:57.349Z,559.60
2018-05-31T04:12:26.482Z,577.10
2018-05-31T04:14:55.605Z,527.22
2018-05-31T04:17:24.738Z,539.47
2018-05-31T04:19:53.254Z,519.72
2018-05-31T04:22:22.188Z,476.77
2018-05-31T04:24:51.876Z,484.50
2018-05-31T04:27:21.016Z,481.50
2018-05-31T04:29:50.129Z,456.10
2018-05-31T04:32:19.085Z,487.92
2018-05-31T04:34:48.196Z,457.75
2018-05-31T04:37:17.328Z,447.02
2018-05-31T04:39:46.451Z,450.85
2018-05-31T04:42:15.569Z,422.73
2018-05-31T04:44:44.685Z,416.42
2018-05-31T04:47:13.593Z,398.62
2018-05-31T04:49:42.717Z,393.30
2018-05-31T04:52:11.821Z,385.67
2018-05-31T04:54:40.343Z,369.67
2018-05-31T04:57:09.441Z,357.27
2018-05-31T04:59:38.595Z,337.52
2018-05-31T05:02:07.507Z,330.02
2018-05-31T05:04:36.429Z,320.50
2018-05-31T05:07:05.345Z,328.60
2018-05-31T05:09:34.429Z,321.65
2018-05-31T05:12:03.539Z,313.55
2018-05-31T05:14:32.645Z,290.25
2018-05-31T05:17:01.770Z,285.38
2018-05-31T05:19:30.892Z,284.80
2018-05-31T05:21:59.811Z,266.12
2018-05-31T05:24:28.706Z,278.23
2018-05-31T05:26:57.801Z,255.12
2018-05-31T05:29:26.927Z,242.20
2018-05-31T05:31:56.048Z,258.77
2018-05-31T05:34:25.204Z,239.00
2018-05-31T05:36:54.520Z,222.32
2018-05-31T05:39:23.633Z,225.65
2018-05-31T05:41:52.759Z,202.93
2018-05-31T05:44:21.518Z,190.43
2018-05-31T05:46:50.625Z,169.18
2018-05-31T05:49:19.684Z,153.45
2018-05-31T05:51:48.805Z,145.40
2018-05-31T05:54:17.894Z,148.40
2018-05-31T05:56:47.783Z,139.02
2018-05-31T05:59:16.896Z,141.73
2018-05-31T06:01:46.034Z,136.25
2018-05-31T06:04:15.281Z,136.20
2018-05-31T06:06:44.352Z,126.07
2018-05-31T06:09:13.429Z,117.40
2018-05-31T06:11:42.553Z,114.37
2018-05-31T06:14:11.642Z,113.07
2018-05-31T06:16:42.355Z,102.05
2018-05-31T06:19:11.444Z,101.45
2018-05-31T06:21:40.541Z,100.68
2018-05-31T06:24:09.628Z,98.10
2018-05-31T06:26:38.693Z,105.63
2018-05-31T06:29:07.795Z,97.35
2018-05-31T06:31:36.862Z,97.45
2018-05-31T06:34:05.766Z,102.12
2018-05-31T06:36:34.842Z,98.12
2018-05-31T06:39:03.236Z,99.72
2018-05-31T06:41:32.135Z,97.40
2018-05-31T06:44:01.051Z,97.72
2018-05-31T06:46:30.718Z,92.78
2018-05-31T06:49:03.539Z,94.30
2018-05-31T06:51:33.207Z,85.60
2018-05-31T06:54:02.102Z,83.80
2018-05-31T06:56:31.177Z,74.68
2018-05-31T06:59:00.055Z,74.87
2018-05-31T07:01:28.948Z,74.53
2018-05-31T07:03:57.828Z,70.00
2018-05-31T07:06:26.723Z,63.85
2018-05-31T07:08:56.395Z,67.37
2018-05-31T07:11:25.272Z,67.05
2018-05-31T07:13:54.154Z,67.80
2018-05-31T07:16:23.033Z,67.60
2018-05-31T07:18:51.905Z,68.07
2018-05-31T07:21:20.791Z,66.72
2018-05-31T07:23:49.713Z,68.57
2018-05-31T07:26:18.256Z,66.07
2018-05-31T07:28:47.927Z,66.18
2018-05-31T07:31:16.811Z,67.85
2018-05-31T07:33:45.468Z,65.78
2018-05-31T07:36:14.365Z,69.45
2018-05-31T07:38:43.457Z,70.22
2018-05-31T07:41:13.316Z,68.93
2018-05-31T07:43:42.266Z,66.65
2018-05-31T07:46:11.164Z,70.30
2018-05-31T07:48:40.103Z,72.90
2018-05-31T07:51:09.003Z,73.55
2018-05-31T07:53:37.931Z,69.90
2018-05-31T07:56:07.599Z,66.87
2018-05-31T07:58:36.510Z,67.25
2018-05-31T08:01:06.180Z,64.75
2018-05-31T08:03:35.065Z,67.28
2018-05-31T08:06:04.194Z,64.25
2018-05-31T08:08:33.126Z,66.57
2018-05-31T08:11:02.002Z,65.82
2018-05-31T08:13:30.914Z,64.72
2018-05-31T08:15:59.816Z,64.18
2018-05-31T08:18:28.720Z,65.28
2018-05-31T08:20:58.390Z,63.10
2018-05-31T08:23:27.328Z,64.47
2018-05-31T08:25:56.223Z,61.30
2018-05-31T08:28:25.136Z,63.80
2018-05-31T08:30:54.052Z,61.45
2018-05-31T08:33:22.934Z,59.25
2018-05-31T08:35:52.624Z,55.45
2018-05-31T08:38:21.496Z,56.90
2018-05-31T08:40:50.405Z,45.55
2018-05-31T08:43:20.073Z,35.25
2018-05-31T08:45:48.960Z,28.30
2018-05-31T08:48:17.843Z,25.60
2018-05-31T08:50:46.739Z,23.58
2018-05-31T08:53:15.623Z,23.55
2018-05-31T08:55:44.511Z,23.42
2018-05-31T08:58:13.421Z,23.92
2018-05-31T09:00:42.309Z,23.20
2018-05-31T09:03:11.254Z,17.90
2018-05-31T09:05:40.155Z,16.20
2018-05-31T09:08:09.060Z,16.62
2018-05-31T09:10:37.980Z,16.05
2018-05-31T09:13:07.695Z,18.12
2018-05-31T09:15:37.361Z,17.75
2018-05-31T09:18:06.454Z,16.52
2018-05-31T09:20:35.372Z,18.33
2018-05-31T09:23:04.299Z,14.30
2018-05-31T09:25:33.939Z,13.35
2018-05-31T09:28:02.840Z,16.05
2018-05-31T09:30:44.179Z,18.30
2018-05-31T09:33:15.887Z,11.18
2018-05-31T09:35:44.788Z,6.35
2018-05-31T09:38:13.702Z,7.40
2018-05-31T09:40:42.616Z,16.70
2018-05-31T09:43:11.502Z,21.95
2018-05-31T09:45:40.401Z,24.27
2018-05-31T09:48:09.314Z,22.35
2018-05-31T09:50:38.363Z,21.37
2018-05-31T09:53:06.915Z,12.55
2018-05-31T09:55:35.817Z,15.23
2018-05-31T09:58:04.123Z,15.83
2018-05-31T10:00:42.542Z,15.30
2018-05-31T10:03:11.424Z,9.88
2018-05-31T10:05:40.316Z,8.35
2018-05-31T10:08:09.179Z,7.05
2018-05-31T10:10:38.045Z,7.30
2018-05-31T10:13:06.923Z,5.87
2018-05-31T10:15:35.810Z,4.20
2018-05-31T10:18:04.695Z,5.80
2018-05-31T10:20:33.606Z,6.00
2018-05-31T10:23:01.945Z,7.50
2018-05-31T10:25:31.589Z,9.15
2018-05-31T10:28:00.479Z,9.07
2018-05-31T10:30:29.387Z,9.05
2018-05-31T10:32:58.269Z,10.65
2018-05-31T10:35:27.179Z,8.43
2018-05-31T10:37:56.077Z,12.93
2018-05-31T10:40:24.961Z,15.05
2018-05-31T10:42:53.273Z,11.10
2018-05-31T10:45:22.147Z,7.85
2018-05-31T10:47:50.797Z,8.45
2018-05-31T10:53:11.346Z,7.45
2018-05-31T10:55:40.204Z,6.30
2018-05-31T10:58:09.083Z,6.75
2018-05-31T11:00:38.003Z,7.78
2018-05-31T11:05:41.105Z,6.97
2018-05-31T11:08:10.009Z,7.05
2018-05-31T11:10:39.633Z,7.05
2018-05-31T11:13:08.517Z,8.77
2018-05-31T11:15:37.422Z,10.90
2018-05-31T11:18:06.310Z,8.95
2018-05-31T11:20:35.195Z,9.25
2018-05-31T11:23:04.084Z,8.73
2018-05-31T11:25:32.964Z,10.35
2018-05-31T11:28:02.674Z,11.70
2018-05-31T11:30:31.547Z,15.45
2018-05-31T11:33:01.248Z,12.75
2018-05-31T11:35:30.147Z,12.80
2018-05-31T11:37:59.049Z,11.68
2018-05-31T11:40:31.094Z,11.82
2018-05-31T11:42:59.978Z,11.93
2018-05-31T11:45:28.851Z,13.15
2018-05-31T11:47:57.753Z,17.92
2018-05-31T11:50:26.663Z,13.90
2018-05-31T11:52:55.536Z,10.88
2018-05-31T11:55:24.489Z,12.85
2018-05-31T11:57:53.397Z,14.07
2018-05-31T12:00:22.254Z,14.43
2018-05-31T12:02:51.135Z,14.07
2018-05-31T12:05:23.140Z,29.27
2018-05-31T12:08:07.325Z,22.58
2018-05-31T12:10:35.810Z,15.90
2018-05-31T12:13:07.724Z,16.37
2018-05-31T12:15:36.032Z,16.80
2018-05-31T12:18:04.371Z,19.17
2018-05-31T12:20:33.627Z,19.80
2018-05-31T12:23:01.671Z,28.10
2018-05-31T12:25:30.783Z,21.47
2018-05-31T12:27:59.273Z,14.33
2018-05-31T12:30:27.594Z,20.80
2018-05-31T12:32:55.932Z,19.53
2018-05-31T12:35:24.271Z,25.63
2018-05-31T12:37:52.634Z,23.60
2018-05-31T12:40:20.965Z,31.20
2018-05-31T12:42:50.058Z,28.03
2018-05-31T12:45:18.158Z,27.23
2018-05-31T12:47:47.443Z,25.23
2018-05-31T12:50:16.352Z,25.02
2018-05-31T12:52:45.249Z,24.05
2018-05-31T12:58:05.803Z,15.27
2018-05-31T13:00:34.701Z,14.38
2018-05-31T13:03:03.587Z,15.70
2018-05-31T13:05:33.317Z,16.48
2018-05-31T13:08:02.352Z,13.85
2018-05-31T13:10:31.240Z,10.60
2018-05-31T13:13:00.141Z,10.95
2018-05-31T13:15:29.005Z,12.32
2018-05-31T13:17:57.903Z,10.80
2018-05-31T13:20:26.783Z,12.88
2018-05-31T13:22:55.723Z,11.43
2018-05-31T13:25:24.619Z,8.32
2018-05-31T13:27:53.496Z,7.37
2018-05-31T13:30:22.396Z,11.23
2018-05-31T13:32:52.052Z,6.30
2018-05-31T13:35:20.920Z,6.70
2018-05-31T13:37:49.823Z,7.65
2018-05-31T13:40:18.714Z,9.73
2018-05-31T13:42:47.580Z,8.48
2018-05-31T13:45:16.513Z,8.57
2018-05-31T13:47:45.403Z,5.72
2018-05-31T13:50:14.275Z,7.22
2018-05-31T13:52:42.864Z,7.80
2018-05-31T13:55:11.749Z,9.25
2018-05-31T13:57:40.636Z,8.50
2018-05-31T14:00:09.587Z,8.27
2018-05-31T14:02:38.468Z,10.75
2018-05-31T14:05:07.357Z,9.10
2018-05-31T14:07:36.290Z,8.23
2018-05-31T14:10:05.374Z,10.95
2018-05-31T14:12:34.274Z,13.40
2018-05-31T14:15:03.226Z,15.02
2018-05-31T14:17:32.139Z,11.38
2018-05-31T14:20:01.078Z,14.02
2018-05-31T14:22:29.992Z,12.93
2018-05-31T14:24:59.901Z,14.52
2018-05-31T14:27:28.795Z,12.93
2018-05-31T14:29:57.674Z,11.10
2018-05-31T14:32:26.339Z,13.62
2018-05-31T14:34:55.226Z,11.93
2018-05-31T14:37:24.620Z,10.53
2018-05-31T14:39:53.534Z,9.80
2018-05-31T14:42:22.130Z,11.10
2018-05-31T14:44:50.707Z,10.93
2018-05-31T14:47:19.315Z,11.17
2018-05-31T14:49:48.729Z,12.03
2018-05-31T14:52:17.342Z,14.00
2018-05-31T14:54:45.953Z,10.13
2018-05-31T14:57:14.563Z,12.20
2018-05-31T14:59:52.303Z,12.13
2018-05-31T15:02:20.913Z,15.33
2018-05-31T15:04:49.526Z,12.03
2018-05-31T15:07:17.908Z,12.97
2018-05-31T15:09:46.515Z,13.77
2018-05-31T15:12:15.130Z,13.63
2018-05-31T15:14:44.488Z,13.50
2018-05-31T15:17:13.101Z,12.63
2018-05-31T15:19:41.702Z,11.73
2018-05-31T15:22:10.326Z,11.83
2018-05-31T15:24:38.931Z,10.30
2018-05-31T15:27:07.541Z,11.20
2018-05-31T15:29:36.185Z,11.10
2018-05-31T15:32:04.579Z,10.53
2018-05-31T15:34:33.447Z,11.40
2018-05-31T15:37:02.081Z,12.10
2018-05-31T15:39:30.722Z,11.93
2018-05-31T15:41:59.398Z,10.53
2018-05-31T15:44:28.175Z,7.87
2018-05-31T15:46:56.780Z,8.90
2018-05-31T15:49:26.208Z,9.03
2018-05-31T15:51:55.402Z,6.10
2018-05-31T15:54:24.234Z,7.80
2018-05-31T15:56:52.840Z,7.17
2018-05-31T15:59:21.475Z,7.20
2018-05-31T16:01:50.850Z,7.27
2018-05-31T16:04:19.456Z,7.33
2018-05-31T16:06:48.072Z,9.40
2018-05-31T16:09:16.696Z,8.37
2018-05-31T16:11:45.283Z,7.93
2018-05-31T16:14:13.915Z,8.80
2018-05-31T16:16:43.325Z,7.67
2018-05-31T16:21:46.981Z,8.37
2018-05-31T16:24:15.595Z,5.50
2018-05-31T16:26:44.246Z,6.23
2018-05-31T16:29:12.893Z,6.57
2018-05-31T16:31:41.472Z,7.63
2018-05-31T16:34:10.844Z,9.33
2018-05-31T16:36:39.468Z,7.47
2018-05-31T16:39:08.067Z,7.83
2018-05-31T16:41:36.694Z,7.63
2018-05-31T16:44:05.283Z,6.53
2018-05-31T16:46:33.893Z,6.23
2018-05-31T16:49:02.478Z,6.47
2018-05-31T16:51:30.843Z,6.20
2018-05-31T16:53:59.444Z,7.57
2018-05-31T16:56:28.037Z,8.60
2018-05-31T16:58:56.657Z,7.40
2018-05-31T17:01:25.258Z,8.60
2018-05-31T17:03:53.847Z,6.37
2018-05-31T17:06:22.460Z,6.00
2018-05-31T17:08:51.853Z,7.03
2018-05-31T17:11:20.468Z,7.40
2018-05-31T17:13:49.075Z,6.03
2018-05-31T17:16:17.683Z,6.77
2018-05-31T17:18:46.285Z,6.30
2018-05-31T17:21:14.896Z,8.80
2018-05-31T17:23:43.503Z,7.87
2018-05-31T17:26:12.890Z,9.10
2018-05-31T17:28:41.475Z,6.03
2018-05-31T17:31:09.747Z,5.37
2018-05-31T17:33:38.340Z,5.43
2018-05-31T17:36:08.446Z,6.37
2018-05-31T17:38:37.810Z,7.83
2018-05-31T17:41:06.438Z,6.93
2018-05-31T17:43:35.353Z,7.07
2018-05-31T17:46:03.966Z,6.00
2018-05-31T17:48:32.826Z,5.47
2018-05-31T17:51:01.745Z,7.25
2018-05-31T17:53:30.817Z,7.35
2018-05-31T17:55:59.710Z,5.97
2018-05-31T17:58:28.798Z,6.95
2018-05-31T18:00:57.688Z,7.93
2018-05-31T18:03:26.616Z,6.30
2018-05-31T18:05:55.665Z,8.35
2018-05-31T18:08:24.570Z,9.20
2018-05-31T18:10:53.436Z,7.80
2018-05-31T18:13:23.126Z,8.18
2018-05-31T18:15:52.026Z,8.18
2018-05-31T18:18:20.911Z,8.07
2018-05-31T18:20:49.859Z,9.93
2018-05-31T18:23:18.888Z,10.75
2018-05-31T18:25:47.795Z,10.65
2018-05-31T18:28:16.671Z,8.13
2018-05-31T18:30:45.776Z,11.48
2018-05-31T18:33:14.645Z,8.95
2018-05-31T18:35:43.533Z,9.57
2018-05-31T18:38:12.408Z,9.90
2018-05-31T18:40:44.289Z,9.40
2018-05-31T18:43:13.191Z,10.25
2018-05-31T18:45:42.096Z,12.45
2018-05-31T18:48:10.978Z,10.77
2018-05-31T18:50:39.898Z,10.38
2018-05-31T18:53:08.760Z,12.40
2018-05-31T18:55:38.408Z,9.25
2018-05-31T18:58:06.766Z,10.30
2018-05-31T19:00:36.411Z,12.90
2018-05-31T19:03:05.300Z,9.52
2018-05-31T19:05:34.200Z,10.35
2018-05-31T19:08:03.083Z,8.77
2018-05-31T19:10:31.775Z,11.48
2018-05-31T19:13:06.191Z,10.10
2018-05-31T19:15:35.099Z,8.73
2018-05-31T19:18:03.938Z,9.95
2018-05-31T19:20:32.844Z,11.40
2018-05-31T19:23:01.746Z,12.55
2018-05-31T19:25:30.105Z,12.93
2018-05-31T19:27:58.979Z,10.93
2018-05-31T19:30:34.193Z,13.77
2018-05-31T19:33:03.278Z,13.93
2018-05-31T19:35:37.707Z,12.15
2018-05-31T19:38:06.620Z,12.82
2018-05-31T19:40:35.525Z,12.52
2018-05-31T19:43:09.414Z,13.50
2018-05-31T19:45:38.328Z,15.45
2018-05-31T19:48:08.035Z,13.80
2018-05-31T19:50:36.966Z,16.98
2018-05-31T19:53:11.260Z,13.80
2018-05-31T19:55:40.171Z,14.55
2018-05-31T19:58:14.555Z,15.40
2018-05-31T20:00:48.955Z,11.60
2018-05-31T20:03:23.346Z,14.45
2018-05-31T20:05:52.255Z,16.58
2018-05-31T20:08:21.201Z,14.60
2018-05-31T20:10:50.121Z,14.40
2018-05-31T20:13:19.036Z,18.27
2018-05-31T20:15:48.726Z,17.60
2018-05-31T20:18:17.668Z,16.30
2018-05-31T20:20:46.626Z,18.10
2018-05-31T20:23:15.723Z,18.77
2018-05-31T20:25:44.661Z,17.52
2018-05-31T20:28:13.639Z,18.90
2018-05-31T20:30:43.332Z,18.83
2018-05-31T20:33:12.411Z,15.52
2018-05-31T20:35:41.329Z,16.65
2018-05-31T20:38:10.276Z,17.83
2018-05-31T20:40:39.180Z,18.73
2018-05-31T20:43:08.094Z,17.17
2018-05-31T20:45:37.035Z,17.30
2018-05-31T20:48:05.939Z,17.40
2018-05-31T20:50:34.864Z,18.87
2018-05-31T20:53:03.795Z,18.48
2018-05-31T20:55:32.704Z,16.60
2018-05-31T20:58:01.625Z,18.25
2018-05-31T21:00:30.554Z,18.85
2018-05-31T21:02:59.469Z,18.85
2018-05-31T21:05:31.495Z,19.62
2018-05-31T21:08:00.594Z,19.27
2018-05-31T21:10:28.925Z,20.10
2018-05-31T21:12:57.878Z,22.40
2018-05-31T21:15:26.793Z,20.62
2018-05-31T21:17:55.746Z,19.58
2018-05-31T21:20:24.678Z,20.08
2018-05-31T21:22:53.607Z,19.90
2018-05-31T21:25:22.683Z,21.73
2018-05-31T21:27:51.617Z,23.48
2018-05-31T21:30:21.288Z,21.12
2018-05-31T21:32:50.235Z,23.17
2018-05-31T21:35:19.161Z,24.63
2018-05-31T21:37:48.071Z,23.15
2018-05-31T21:40:16.439Z,24.40
2018-05-31T21:42:45.351Z,28.73
2018-05-31T21:45:14.444Z,26.05
2018-05-31T21:47:45.954Z,24.57
2018-05-31T21:50:15.624Z,23.62
2018-05-31T21:52:44.058Z,25.87
2018-05-31T21:55:12.529Z,25.43
2018-05-31T21:57:40.896Z,26.53
2018-05-31T22:00:08.429Z,25.30
2018-05-31T22:05:10.356Z,26.37
2018-05-31T22:07:38.387Z,26.97
2018-05-31T22:10:06.718Z,27.03
2018-05-31T22:12:35.052Z,28.27
2018-05-31T22:15:03.146Z,29.60
2018-05-31T22:17:32.261Z,28.10
2018-05-31T22:20:00.590Z,28.30
2018-05-31T22:22:28.923Z,29.67
2018-05-31T22:24:57.294Z,26.60
2018-05-31T22:27:25.772Z,31.53
2018-05-31T22:29:54.852Z,33.53
2018-05-31T22:32:23.205Z,32.77
2018-05-31T22:34:51.544Z,36.43
2018-05-31T22:37:20.665Z,35.37
2018-05-31T22:39:48.986Z,31.37
2018-05-31T22:42:17.318Z,34.10
2018-05-31T22:44:46.437Z,33.77
2018-05-31T22:47:14.739Z,34.93
2018-05-31T22:49:43.059Z,34.83
2018-05-31T22:52:11.362Z,34.30
2018-05-31T22:54:39.686Z,34.63
2018-05-31T22:57:08.025Z,35.07
2018-05-31T22:59:36.360Z,33.73
2018-05-31T23:02:04.459Z,40.70
2018-05-31T23:04:32.779Z,38.30
2018-05-31T23:07:01.102Z,39.30
2018-05-31T23:09:29.592Z,38.47
2018-05-31T23:11:57.934Z,41.57
2018-05-31T23:14:26.276Z,45.80
2018-05-31T23:16:54.603Z,44.93
2018-05-31T23:19:22.919Z,40.63
2018-05-31T23:21:52.008Z,44.13
2018-05-31T23:24:20.320Z,49.37
2018-05-31T23:26:48.653Z,53.80
2018-05-31T23:29:16.968Z,60.43
2018-05-31T23:31:45.316Z,68.60
2018-05-31T23:34:13.627Z,63.57
2018-05-31T23:36:41.949Z,68.10
2018-05-31T23:39:11.045Z,70.10
2018-05-31T23:41:39.360Z,68.63
2018-05-31T23:44:07.666Z,66.37
2018-05-31T23:46:35.997Z,67.33
2018-05-31T23:49:04.860Z,65.33
2018-05-31T23:51:33.198Z,68.27
2018-05-31T23:54:01.524Z,70.23
2018-05-31T23:56:29.824Z,69.23
2018-05-31T23:58:58.158Z,70.77
